createdAt,value
2022-12-04T00:02:04.637Z,5.97
2022-12-04T00:04:31.142Z,6.90
2022-12-04T00:06:59.059Z,6.93
2022-12-04T00:09:27.250Z,6.27
2022-12-04T00:11:53.809Z,6.10
2022-12-04T00:14:20.404Z,6.68
2022-12-04T00:16:46.978Z,6.00
2022-12-04T00:19:13.620Z,6.60
2022-12-04T00:21:40.129Z,5.97
2022-12-04T00:24:07.055Z,6.30
2022-12-04T00:26:34.954Z,6.72
2022-12-04T00:29:01.682Z,6.47
2022-12-04T00:31:30.206Z,6.88
2022-12-04T00:33:57.638Z,6.63
2022-12-04T00:36:26.573Z,6.50
2022-12-04T00:38:54.145Z,6.13
2022-12-04T00:41:23.251Z,5.85
2022-12-04T00:43:51.233Z,6.45
2022-12-04T00:46:18.104Z,6.27
2022-12-04T00:48:44.783Z,6.78
2022-12-04T00:51:13.527Z,6.45
2022-12-04T00:53:40.531Z,6.93
2022-12-04T00:56:10.254Z,7.30
2022-12-04T00:58:37.045Z,6.57
2022-12-04T01:01:07.668Z,6.40
2022-12-04T01:03:35.066Z,6.55
2022-12-04T01:06:04.377Z,6.13
2022-12-04T01:08:31.430Z,6.15
2022-12-04T01:10:58.372Z,6.10
2022-12-04T01:13:25.862Z,6.82
2022-12-04T01:15:52.834Z,6.90
2022-12-04T01:18:20.738Z,6.72
2022-12-04T01:20:48.308Z,6.47
2022-12-04T01:23:15.296Z,6.20
2022-12-04T01:25:50.215Z,6.72
2022-12-04T01:28:16.741Z,6.60
2022-12-04T01:30:43.484Z,6.85
2022-12-04T01:33:10.035Z,6.10
2022-12-04T01:35:37.944Z,5.90
2022-12-04T01:38:04.637Z,6.07
2022-12-04T01:40:31.288Z,6.50
2022-12-04T01:42:59.707Z,6.30
2022-12-04T01:45:38.584Z,6.60
2022-12-04T01:48:13.966Z,6.20
2022-12-04T01:50:44.032Z,6.50
2022-12-04T01:53:11.340Z,6.13
2022-12-04T01:55:38.524Z,6.85
2022-12-04T01:58:07.205Z,5.85
2022-12-04T02:00:33.846Z,6.37
2022-12-04T02:03:01.244Z,6.35
2022-12-04T02:05:28.209Z,6.72
2022-12-04T02:08:00.123Z,6.28
2022-12-04T02:10:49.061Z,5.53
2022-12-04T02:13:21.998Z,5.63
2022-12-04T02:15:57.609Z,6.40
2022-12-04T02:18:32.838Z,5.78
2022-12-04T02:21:07.262Z,6.43
2022-12-04T02:23:50.583Z,5.78
2022-12-04T02:26:33.369Z,5.83
2022-12-04T02:29:09.130Z,5.78
2022-12-04T02:31:42.982Z,6.50
2022-12-04T02:34:16.159Z,5.95
2022-12-04T02:36:48.992Z,6.20
2022-12-04T02:39:21.479Z,6.20
2022-12-04T02:41:56.145Z,6.50
2022-12-04T02:44:27.965Z,6.38
2022-12-04T02:46:58.235Z,6.88
2022-12-04T02:49:31.422Z,6.72
2022-12-04T02:52:00.553Z,6.20
2022-12-04T02:54:34.116Z,6.35
2022-12-04T02:57:04.317Z,7.18
2022-12-04T02:59:36.552Z,5.53
2022-12-04T03:02:10.298Z,6.95
2022-12-04T03:04:39.087Z,6.60
2022-12-04T03:07:13.298Z,6.32
2022-12-04T03:09:45.029Z,6.47
2022-12-04T03:12:16.492Z,5.97
2022-12-04T03:14:51.046Z,6.95
2022-12-04T03:17:24.372Z,6.67
2022-12-04T03:19:57.248Z,6.70
2022-12-04T03:22:24.545Z,7.40
2022-12-04T03:24:53.486Z,6.72
2022-12-04T03:27:26.149Z,7.68
2022-12-04T03:29:58.474Z,6.60
2022-12-04T03:32:30.384Z,7.30
2022-12-04T03:35:01.351Z,7.55
2022-12-04T03:37:36.033Z,5.95
2022-12-04T03:40:11.890Z,7.00
2022-12-04T03:42:44.823Z,7.40
2022-12-04T03:45:19.262Z,6.75
2022-12-04T03:47:51.228Z,7.65
2022-12-04T03:50:23.570Z,7.20
2022-12-04T03:52:59.198Z,7.28
2022-12-04T03:55:31.120Z,6.47
2022-12-04T03:58:02.909Z,7.10
2022-12-04T04:00:33.082Z,7.05
2022-12-04T04:03:03.798Z,6.95
2022-12-04T04:05:32.356Z,7.70
2022-12-04T04:08:02.565Z,7.00
2022-12-04T04:10:29.531Z,7.78
2022-12-04T04:13:00.248Z,7.65
2022-12-04T04:15:27.079Z,7.88
2022-12-04T04:17:58.489Z,8.43
2022-12-04T04:20:31.293Z,8.40
2022-12-04T04:23:00.793Z,7.85
2022-12-04T04:25:29.106Z,7.38
2022-12-04T04:27:58.019Z,8.15
2022-12-04T04:30:27.450Z,8.50
2022-12-04T04:33:04.050Z,8.80
2022-12-04T04:35:40.475Z,8.43
2022-12-04T04:38:13.505Z,7.78
2022-12-04T04:40:50.197Z,10.27
2022-12-04T04:43:22.976Z,9.00
2022-12-04T04:45:55.073Z,8.50
2022-12-04T04:48:28.728Z,8.85
2022-12-04T04:50:56.342Z,8.27
2022-12-04T04:53:26.493Z,7.93
2022-12-04T04:55:53.715Z,8.50
2022-12-04T04:58:21.712Z,7.50
2022-12-04T05:00:56.718Z,8.05
2022-12-04T05:03:25.051Z,8.63
2022-12-04T05:05:51.792Z,8.27
2022-12-04T05:08:18.449Z,9.23
2022-12-04T05:10:45.123Z,9.27
2022-12-04T05:13:12.230Z,8.63
2022-12-04T05:15:39.235Z,9.90
2022-12-04T05:18:06.008Z,8.32
2022-12-04T05:20:34.230Z,9.93
2022-12-04T05:23:00.805Z,8.20
2022-12-04T05:25:27.502Z,9.48
2022-12-04T05:27:54.163Z,8.75
2022-12-04T05:30:21.081Z,8.93
2022-12-04T05:32:47.622Z,9.30
2022-12-04T05:35:14.178Z,9.03
2022-12-04T05:37:42.011Z,8.20
2022-12-04T05:40:09.475Z,10.10
2022-12-04T05:42:37.204Z,9.82
2022-12-04T05:45:04.327Z,9.23
2022-12-04T05:47:30.857Z,8.43
2022-12-04T05:49:57.676Z,8.50
2022-12-04T05:52:24.423Z,9.23
2022-12-04T05:54:52.262Z,9.07
2022-12-04T05:57:18.908Z,9.60
2022-12-04T05:59:45.560Z,8.90
2022-12-04T06:02:12.210Z,9.23
2022-12-04T06:04:38.821Z,9.07
2022-12-04T06:07:05.392Z,8.75
2022-12-04T06:09:31.939Z,9.20
2022-12-04T06:11:59.813Z,8.60
2022-12-04T06:14:26.749Z,8.55
2022-12-04T06:16:53.367Z,9.18
2022-12-04T06:19:21.293Z,9.82
2022-12-04T06:21:52.482Z,8.80
2022-12-04T06:24:21.308Z,8.43
2022-12-04T06:27:18.950Z,9.05
2022-12-04T06:29:36.667Z,9.35
2022-12-04T06:32:03.667Z,9.05
2022-12-04T06:34:30.489Z,8.75
2022-12-04T06:36:57.087Z,8.10
2022-12-04T06:39:23.682Z,8.73
2022-12-04T06:41:50.299Z,9.20
2022-12-04T06:44:16.871Z,8.15
2022-12-04T06:46:47.048Z,8.88
2022-12-04T06:49:14.230Z,9.13
2022-12-04T06:51:41.081Z,8.55
2022-12-04T06:54:08.857Z,8.73
2022-12-04T06:56:35.388Z,7.97
2022-12-04T06:59:03.808Z,10.15
2022-12-04T07:01:33.333Z,9.27
2022-12-04T07:04:03.083Z,7.97
2022-12-04T07:06:32.009Z,9.15
2022-12-04T07:09:00.283Z,8.85
2022-12-04T07:11:26.927Z,9.57
2022-12-04T07:13:55.011Z,8.23
2022-12-04T07:16:23.595Z,8.55
2022-12-04T07:18:50.650Z,8.57
2022-12-04T07:21:20.681Z,7.85
2022-12-04T07:23:49.957Z,8.35
2022-12-04T07:26:16.718Z,8.30
2022-12-04T07:28:43.328Z,8.32
2022-12-04T07:31:11.986Z,7.85
2022-12-04T07:33:38.698Z,8.48
2022-12-04T07:36:08.204Z,8.38
2022-12-04T07:38:36.038Z,6.70
2022-12-04T07:41:04.654Z,8.20
2022-12-04T07:43:32.361Z,8.80
2022-12-04T07:46:03.436Z,7.18
2022-12-04T07:48:33.275Z,7.80
2022-12-04T07:51:04.750Z,7.73
2022-12-04T07:53:31.404Z,8.20
2022-12-04T07:55:59.495Z,7.80
2022-12-04T07:58:26.215Z,7.25
2022-12-04T08:00:52.958Z,8.80
2022-12-04T08:03:19.553Z,7.70
2022-12-04T08:05:46.303Z,7.10
2022-12-04T08:08:13.239Z,9.05
2022-12-04T08:10:40.330Z,7.90
2022-12-04T08:13:08.204Z,8.07
2022-12-04T08:15:35.011Z,8.10
2022-12-04T08:18:01.580Z,8.52
2022-12-04T08:20:28.204Z,8.10
2022-12-04T08:22:54.777Z,7.97
2022-12-04T08:25:21.362Z,7.88
2022-12-04T08:27:48.440Z,7.57
2022-12-04T08:30:17.161Z,7.72
2022-12-04T08:32:43.726Z,7.82
2022-12-04T08:35:10.277Z,8.02
2022-12-04T08:37:37.020Z,7.97
2022-12-04T08:40:04.228Z,7.80
2022-12-04T08:42:30.761Z,7.18
2022-12-04T08:44:57.322Z,7.90
2022-12-04T08:47:25.178Z,7.75
2022-12-04T08:49:51.863Z,7.90
2022-12-04T08:52:18.429Z,7.30
2022-12-04T08:54:45.012Z,7.10
2022-12-04T08:57:11.589Z,7.85
2022-12-04T08:59:38.172Z,7.00
2022-12-04T09:02:04.904Z,7.10
2022-12-04T09:04:34.683Z,7.73
2022-12-04T09:07:01.391Z,7.30
2022-12-04T09:09:28.076Z,7.68
2022-12-04T09:11:54.568Z,8.18
2022-12-04T09:14:21.145Z,7.82
2022-12-04T09:16:47.701Z,8.20
2022-12-04T09:19:14.205Z,7.78
2022-12-04T09:21:42.118Z,7.50
2022-12-04T09:24:08.691Z,7.47
2022-12-04T09:26:35.227Z,8.68
2022-12-04T09:29:03.798Z,7.70
2022-12-04T09:31:31.864Z,7.40
2022-12-04T09:33:58.948Z,7.68
2022-12-04T09:36:25.681Z,7.65
2022-12-04T09:38:54.543Z,8.07
2022-12-04T09:41:39.814Z,7.83
2022-12-04T09:44:11.482Z,7.85
2022-12-04T09:46:42.754Z,8.00
2022-12-04T09:49:21.818Z,7.55
2022-12-04T09:51:50.495Z,8.57
2022-12-04T09:54:21.563Z,8.50
2022-12-04T09:56:54.085Z,7.82
2022-12-04T09:59:23.636Z,8.13
2022-12-04T10:01:55.904Z,7.57
2022-12-04T10:04:22.790Z,7.63
2022-12-04T10:06:56.792Z,8.27
2022-12-04T10:09:31.553Z,7.95
2022-12-04T10:12:07.016Z,8.13
2022-12-04T10:14:50.988Z,8.18
2022-12-04T10:17:34.277Z,8.52
2022-12-04T10:20:11.758Z,8.53
2022-12-04T10:22:50.643Z,8.40
2022-12-04T10:25:21.777Z,8.65
2022-12-04T10:27:51.770Z,8.38
2022-12-04T10:30:21.617Z,8.93
2022-12-04T10:32:52.380Z,8.30
2022-12-04T10:35:21.664Z,8.27
2022-12-04T10:37:53.449Z,7.85
2022-12-04T10:40:25.045Z,8.85
2022-12-04T10:42:56.349Z,8.57
2022-12-04T10:45:23.755Z,8.70
2022-12-04T10:47:52.063Z,8.43
2022-12-04T10:50:21.685Z,8.10
2022-12-04T10:52:48.355Z,8.57
2022-12-04T10:55:15.622Z,9.35
2022-12-04T10:57:45.098Z,8.47
2022-12-04T11:00:25.458Z,7.85
2022-12-04T11:02:53.293Z,9.25
2022-12-04T11:05:26.240Z,8.13
2022-12-04T11:07:53.012Z,8.80
2022-12-04T11:10:24.107Z,9.03
2022-12-04T11:12:56.230Z,8.32
2022-12-04T11:15:24.158Z,8.90
2022-12-04T11:17:50.942Z,7.88
2022-12-04T11:20:20.057Z,8.50
2022-12-04T11:22:50.727Z,8.50
2022-12-04T11:25:19.429Z,9.48
2022-12-04T11:27:47.838Z,8.63
2022-12-04T11:30:21.066Z,8.82
2022-12-04T11:32:47.935Z,8.85
2022-12-04T11:35:16.707Z,9.27
2022-12-04T11:37:52.934Z,9.80
2022-12-04T11:40:20.112Z,9.35
2022-12-04T11:42:59.292Z,9.18
2022-12-04T11:45:27.502Z,8.57
2022-12-04T11:47:55.731Z,8.97
2022-12-04T11:50:30.418Z,8.40
2022-12-04T11:53:05.897Z,9.00
2022-12-04T11:55:42.480Z,9.10
2022-12-04T11:58:31.726Z,8.77
2022-12-04T12:01:12.977Z,8.80
2022-12-04T12:03:50.859Z,7.88
2022-12-04T12:06:30.093Z,8.23
2022-12-04T12:09:17.236Z,8.52
2022-12-04T12:11:50.526Z,8.68
2022-12-04T12:14:24.341Z,8.57
2022-12-04T12:17:05.940Z,8.23
2022-12-04T12:20:02.046Z,8.25
2022-12-04T12:22:42.414Z,7.95
2022-12-04T12:25:18.868Z,8.07
2022-12-04T12:28:04.479Z,8.30
2022-12-04T12:30:38.613Z,7.60
2022-12-04T12:33:16.364Z,7.68
2022-12-04T12:36:00.607Z,8.63
2022-12-04T12:38:33.491Z,8.30
2022-12-04T12:41:05.156Z,8.30
2022-12-04T12:43:34.031Z,8.70
2022-12-04T12:46:06.322Z,8.88
2022-12-04T12:48:40.015Z,8.40
2022-12-04T12:51:29.776Z,9.23
2022-12-04T12:54:03.644Z,8.60
2022-12-04T12:56:35.223Z,9.32
2022-12-04T12:59:05.727Z,9.10
2022-12-04T13:01:43.631Z,11.40
2022-12-04T13:04:18.494Z,9.38
2022-12-04T13:06:49.448Z,9.73
2022-12-04T13:09:20.988Z,8.85
2022-12-04T13:11:50.478Z,9.27
2022-12-04T13:14:17.158Z,9.93
2022-12-04T13:16:47.642Z,8.95
2022-12-04T13:19:23.095Z,8.50
2022-12-04T13:22:00.912Z,8.65
2022-12-04T13:24:56.144Z,9.25
2022-12-04T13:27:35.948Z,9.13
2022-12-04T13:30:14.635Z,8.95
2022-12-04T13:33:26.466Z,8.70
2022-12-04T13:36:11.534Z,7.93
2022-12-04T13:38:55.109Z,9.45
2022-12-04T13:41:26.952Z,9.50
2022-12-04T13:43:55.099Z,9.88
2022-12-04T13:46:28.423Z,9.03
2022-12-04T13:48:55.657Z,7.80
2022-12-04T13:51:33.626Z,9.23
2022-12-04T13:54:16.619Z,9.05
2022-12-04T13:56:44.908Z,9.90
2022-12-04T13:59:22.037Z,9.07
2022-12-04T14:01:52.032Z,9.02
2022-12-04T14:04:28.390Z,9.55
2022-12-04T14:06:58.738Z,9.50
2022-12-04T14:09:28.218Z,9.75
2022-12-04T14:11:59.504Z,9.27
2022-12-04T14:14:29.920Z,9.45
2022-12-04T14:16:58.684Z,9.38
2022-12-04T14:19:33.005Z,9.98
2022-12-04T14:22:01.385Z,10.27
2022-12-04T14:24:34.524Z,8.53
2022-12-04T14:27:17.882Z,8.80
2022-12-04T14:29:47.992Z,9.43
2022-12-04T14:32:17.559Z,10.27
2022-12-04T14:34:44.769Z,9.90
2022-12-04T14:37:21.641Z,8.97
2022-12-04T14:39:49.412Z,9.10
2022-12-04T14:42:20.883Z,9.40
2022-12-04T14:44:53.071Z,8.57
2022-12-04T14:47:32.962Z,8.88
2022-12-04T14:50:14.442Z,8.70
2022-12-04T14:52:50.084Z,8.70
2022-12-04T14:55:26.562Z,9.07
2022-12-04T14:57:57.655Z,8.32
2022-12-04T15:00:24.986Z,8.55
2022-12-04T15:02:54.904Z,8.27
2022-12-04T15:05:25.597Z,8.73
2022-12-04T15:07:59.196Z,8.48
2022-12-04T15:10:27.741Z,9.43
2022-12-04T15:12:54.846Z,8.95
2022-12-04T15:15:24.759Z,8.83
2022-12-04T15:18:01.689Z,8.80
2022-12-04T15:20:37.412Z,9.23
2022-12-04T15:23:06.896Z,8.40
2022-12-04T15:25:40.088Z,8.63
2022-12-04T15:28:12.173Z,9.27
2022-12-04T15:30:41.814Z,9.18
2022-12-04T15:33:20.747Z,9.00
2022-12-04T15:35:52.441Z,9.35
2022-12-04T15:38:21.041Z,9.20
2022-12-04T15:40:53.173Z,9.40
2022-12-04T15:43:28.851Z,10.50
2022-12-04T15:45:55.860Z,9.57
2022-12-04T15:48:24.548Z,9.93
2022-12-04T15:50:56.142Z,9.98
2022-12-04T15:53:28.103Z,9.67
2022-12-04T15:55:59.838Z,10.65
2022-12-04T15:58:28.175Z,10.88
2022-12-04T16:00:56.562Z,9.75
2022-12-04T16:03:26.681Z,10.32
2022-12-04T16:06:03.941Z,9.33
2022-12-04T16:08:33.593Z,9.98
2022-12-04T16:11:02.857Z,11.20
2022-12-04T16:13:32.020Z,10.55
2022-12-04T16:15:59.165Z,11.32
2022-12-04T16:18:27.218Z,10.47
2022-12-04T16:20:54.137Z,9.90
2022-12-04T16:23:23.454Z,11.27
2022-12-04T16:25:53.697Z,10.88
2022-12-04T16:28:20.835Z,11.63
2022-12-04T16:30:47.770Z,11.03
2022-12-04T16:33:15.113Z,10.65
2022-12-04T16:35:42.199Z,11.55
2022-12-04T16:38:13.976Z,10.05
2022-12-04T16:40:40.528Z,11.52
2022-12-04T16:43:11.005Z,11.03
2022-12-04T16:45:37.940Z,10.25
2022-12-04T16:48:05.453Z,11.02
2022-12-04T16:50:32.014Z,10.82
2022-12-04T16:52:58.618Z,10.65
2022-12-04T16:55:31.352Z,10.20
2022-12-04T16:57:57.985Z,11.32
2022-12-04T17:00:26.068Z,11.40
2022-12-04T17:02:52.938Z,11.65
2022-12-04T17:05:21.001Z,11.48
2022-12-04T17:07:48.007Z,10.80
2022-12-04T17:10:20.249Z,11.30
2022-12-04T17:12:52.061Z,11.27
2022-12-04T17:15:19.225Z,11.27
2022-12-04T17:17:47.410Z,12.07
2022-12-04T17:20:18.490Z,11.20
2022-12-04T17:22:45.213Z,11.30
2022-12-04T17:25:12.545Z,11.07
2022-12-04T17:27:39.441Z,10.70
2022-12-04T17:30:07.655Z,12.98
2022-12-04T17:32:34.927Z,11.90
2022-12-04T17:35:04.555Z,11.35
2022-12-04T17:37:32.588Z,12.10
2022-12-04T17:39:59.683Z,11.63
2022-12-04T17:42:26.648Z,12.45
2022-12-04T17:44:53.659Z,13.57
2022-12-04T17:47:20.663Z,12.35
2022-12-04T17:49:47.319Z,12.80
2022-12-04T17:52:15.532Z,10.90
2022-12-04T17:54:42.085Z,12.10
2022-12-04T17:57:08.787Z,12.23
2022-12-04T17:59:35.444Z,11.32
2022-12-04T18:02:02.143Z,11.77
2022-12-04T18:04:28.772Z,11.68
2022-12-04T18:06:55.339Z,11.48
2022-12-04T18:09:23.385Z,11.77
2022-12-04T18:11:49.998Z,11.65
2022-12-04T18:14:18.459Z,11.95
2022-12-04T18:16:48.625Z,11.63
2022-12-04T18:19:15.519Z,11.90
2022-12-04T18:21:42.235Z,11.23
2022-12-04T18:24:09.333Z,11.63
2022-12-04T18:26:39.445Z,11.63
2022-12-04T18:29:06.655Z,12.35
2022-12-04T18:31:33.633Z,12.10
2022-12-04T18:34:00.484Z,11.73
2022-12-04T18:36:28.791Z,12.45
2022-12-04T18:38:57.902Z,11.90
2022-12-04T18:41:25.171Z,12.13
2022-12-04T18:43:54.048Z,11.13
2022-12-04T18:46:21.280Z,11.97
2022-12-04T18:48:49.020Z,11.70
2022-12-04T18:51:19.117Z,12.77
2022-12-04T18:53:46.066Z,12.73
2022-12-04T18:56:13.162Z,11.75
2022-12-04T18:58:39.929Z,13.53
2022-12-04T19:01:08.859Z,13.73
2022-12-04T19:03:35.874Z,11.82
2022-12-04T19:06:03.338Z,12.38
2022-12-04T19:08:33.754Z,14.02
2022-12-04T19:11:06.485Z,12.00
2022-12-04T19:13:33.420Z,12.57
2022-12-04T19:16:00.005Z,11.80
2022-12-04T19:18:28.778Z,11.68
2022-12-04T19:20:56.086Z,12.07
2022-12-04T19:23:23.157Z,12.43
2022-12-04T19:25:54.789Z,13.07
2022-12-04T19:28:21.437Z,12.05
2022-12-04T19:30:48.136Z,12.00
2022-12-04T19:33:14.655Z,12.48
2022-12-04T19:35:42.685Z,12.53
2022-12-04T19:38:09.297Z,12.30
2022-12-04T19:40:35.951Z,12.13
2022-12-04T19:43:03.307Z,10.98
2022-12-04T19:45:30.071Z,11.07
2022-12-04T19:47:56.851Z,11.30
2022-12-04T19:50:23.563Z,11.75
2022-12-04T19:52:51.453Z,12.23
2022-12-04T19:55:18.237Z,12.10
2022-12-04T19:57:44.782Z,12.15
2022-12-04T20:00:12.106Z,12.70
2022-12-04T20:02:38.682Z,12.77
2022-12-04T20:05:05.888Z,13.50
2022-12-04T20:07:32.488Z,11.82
2022-12-04T20:10:00.854Z,11.40
2022-12-04T20:12:27.642Z,11.53
2022-12-04T20:14:54.224Z,11.80
2022-12-04T20:17:20.802Z,12.50
2022-12-04T20:19:47.523Z,11.25
2022-12-04T20:22:14.046Z,12.40
2022-12-04T20:24:40.640Z,12.53
2022-12-04T20:27:08.519Z,11.73
2022-12-04T20:29:35.289Z,11.77
2022-12-04T20:32:02.034Z,11.80
2022-12-04T20:34:28.889Z,11.55
2022-12-04T20:36:55.503Z,11.07
2022-12-04T20:39:22.203Z,11.25
2022-12-04T20:41:48.812Z,11.35
2022-12-04T20:44:18.660Z,11.30
2022-12-04T20:46:45.870Z,12.13
2022-12-04T20:49:20.764Z,10.70
2022-12-04T20:51:48.561Z,11.40
2022-12-04T20:54:16.829Z,10.32
2022-12-04T20:56:43.714Z,10.30
2022-12-04T20:59:11.893Z,11.10
2022-12-04T21:01:40.580Z,10.80
2022-12-04T21:04:07.841Z,11.00
2022-12-04T21:06:36.166Z,11.23
2022-12-04T21:09:03.925Z,11.52
2022-12-04T21:11:33.306Z,10.88
2022-12-04T21:14:01.684Z,10.17
2022-12-04T21:16:28.574Z,10.90
2022-12-04T21:18:56.571Z,10.23
2022-12-04T21:21:23.204Z,10.45
2022-12-04T21:23:49.695Z,9.93
2022-12-04T21:26:16.238Z,11.00
2022-12-04T21:28:42.829Z,10.60
2022-12-04T21:31:10.198Z,10.48
2022-12-04T21:33:36.959Z,10.27
2022-12-04T21:36:07.566Z,10.93
2022-12-04T21:38:35.170Z,10.40
2022-12-04T21:41:02.669Z,10.10
2022-12-04T21:43:30.300Z,10.98
2022-12-04T21:45:58.233Z,11.57
2022-12-04T21:48:24.880Z,10.73
2022-12-04T21:50:51.455Z,10.37
2022-12-04T21:53:19.725Z,9.68
2022-12-04T21:55:47.487Z,11.02
2022-12-04T21:58:14.083Z,10.75
2022-12-04T22:00:40.716Z,10.05
2022-12-04T22:03:07.256Z,9.90
2022-12-04T22:05:34.161Z,10.40
2022-12-04T22:08:00.860Z,10.18
2022-12-04T22:10:28.846Z,10.73
2022-12-04T22:12:55.448Z,10.20
2022-12-04T22:15:22.005Z,10.90
2022-12-04T22:17:48.641Z,11.13
2022-12-04T22:20:15.880Z,10.25
2022-12-04T22:22:42.474Z,10.73
2022-12-04T22:25:09.668Z,10.70
2022-12-04T22:27:37.607Z,10.40
2022-12-04T22:30:06.236Z,9.95
2022-12-04T22:32:32.906Z,9.75
2022-12-04T22:34:59.430Z,9.82
2022-12-04T22:37:25.978Z,10.82
2022-12-04T22:39:52.563Z,10.17
2022-12-04T22:42:19.155Z,10.07
2022-12-04T22:44:47.368Z,10.15
2022-12-04T22:47:13.902Z,10.32
2022-12-04T22:49:40.450Z,9.73
2022-12-04T22:52:07.128Z,11.40
2022-12-04T22:54:33.925Z,10.40
2022-12-04T22:57:00.450Z,9.93
2022-12-04T22:59:27.236Z,9.90
2022-12-04T23:01:55.108Z,9.20
2022-12-04T23:04:21.676Z,10.20
2022-12-04T23:06:48.270Z,10.18
2022-12-04T23:09:16.540Z,10.05
2022-12-04T23:11:43.576Z,10.73
2022-12-04T23:14:13.429Z,10.43
2022-12-04T23:16:40.851Z,9.53
2022-12-04T23:19:12.214Z,10.23
2022-12-04T23:21:39.431Z,9.73
2022-12-04T23:24:07.136Z,9.70
2022-12-04T23:26:35.865Z,10.07
2022-12-04T23:29:03.088Z,10.23
2022-12-04T23:31:30.227Z,9.88
2022-12-04T23:33:57.058Z,9.73
2022-12-04T23:36:25.346Z,9.65
2022-12-04T23:38:52.110Z,10.20
2022-12-04T23:41:20.182Z,9.83
2022-12-04T23:43:48.864Z,10.40
2022-12-04T23:46:17.615Z,9.90
2022-12-04T23:48:45.555Z,10.68
2022-12-04T23:51:14.309Z,10.07
2022-12-04T23:53:42.948Z,9.97
2022-12-04T23:56:12.416Z,9.57
2022-12-04T23:58:39.811Z,11.55
